createdAt,value
2018-05-08T00:00:15.097Z,52.30
2018-05-08T00:02:43.334Z,52.73
2018-05-08T00:05:11.578Z,52.69
2018-05-08T00:07:39.812Z,52.41
2018-05-08T00:10:08.830Z,52.36
2018-05-08T00:12:37.070Z,52.13
2018-05-08T00:15:06.074Z,51.90
2018-05-08T00:17:35.074Z,51.61
2018-05-08T00:20:04.087Z,51.76
2018-05-08T00:22:32.329Z,51.92
2018-05-08T00:25:00.565Z,51.87
2018-05-08T00:27:28.809Z,52.08
2018-05-08T00:29:57.050Z,51.29
2018-05-08T00:32:25.341Z,51.66
2018-05-08T00:34:54.338Z,51.62
2018-05-08T00:37:23.358Z,51.69
2018-05-08T00:39:51.594Z,51.43
2018-05-08T00:42:20.611Z,51.34
2018-05-08T00:44:48.850Z,51.39
2018-05-08T00:47:17.077Z,51.15
2018-05-08T00:49:45.529Z,51.37
2018-05-08T00:52:14.526Z,52.07
2018-05-08T00:55:00.592Z,51.51
2018-05-08T00:57:28.817Z,51.87
2018-05-08T00:59:57.046Z,51.45
2018-05-08T01:02:25.296Z,51.58
2018-05-08T01:04:53.617Z,51.24
2018-05-08T01:07:21.815Z,51.31
2018-05-08T01:09:50.010Z,50.93
2018-05-08T01:12:18.244Z,51.61
2018-05-08T01:14:47.249Z,50.91
2018-05-08T01:17:15.481Z,51.08
2018-05-08T01:19:43.733Z,51.43
2018-05-08T01:22:11.956Z,51.13
2018-05-08T01:24:40.954Z,50.54
2018-05-08T01:27:09.963Z,51.12
2018-05-08T01:29:38.193Z,51.51
2018-05-08T01:32:06.661Z,51.53
2018-05-08T01:34:34.899Z,51.19
2018-05-08T01:37:03.125Z,51.58
2018-05-08T01:39:31.373Z,51.39
2018-05-08T01:41:59.606Z,51.81
2018-05-08T01:44:28.185Z,52.21
2018-05-08T01:46:57.184Z,52.25
2018-05-08T01:49:25.422Z,52.13
2018-05-08T01:51:53.678Z,51.96
2018-05-08T01:54:21.985Z,51.79
2018-05-08T01:56:50.216Z,51.44
2018-05-08T01:59:18.475Z,52.11
2018-05-08T02:01:46.703Z,51.53
2018-05-08T02:04:14.938Z,52.02
2018-05-08T02:06:43.177Z,52.22
2018-05-08T02:09:12.186Z,52.47
2018-05-08T02:11:40.421Z,52.64
2018-05-08T02:14:08.846Z,52.46
2018-05-08T02:16:37.073Z,52.95
2018-05-08T02:19:05.302Z,52.32
2018-05-08T02:21:33.545Z,52.56
2018-05-08T02:24:02.546Z,52.69
2018-05-08T02:26:31.570Z,53.16
2018-05-08T02:28:59.806Z,53.24
2018-05-08T02:31:28.815Z,53.02
2018-05-08T02:33:57.821Z,53.49
2018-05-08T02:36:26.073Z,53.38
2018-05-08T02:38:55.070Z,53.18
2018-05-08T02:41:24.071Z,52.82
2018-05-08T02:43:53.083Z,53.40
2018-05-08T02:46:21.325Z,53.46
2018-05-08T02:48:50.325Z,53.70
2018-05-08T02:51:19.337Z,53.78
2018-05-08T02:53:47.570Z,53.74
2018-05-08T02:56:15.817Z,53.89
2018-05-08T02:58:44.153Z,54.13
2018-05-08T03:01:13.158Z,53.87
2018-05-08T03:03:41.394Z,54.13
2018-05-08T03:06:09.643Z,54.05
2018-05-08T03:08:37.866Z,53.98
2018-05-08T03:11:06.884Z,54.56
2018-05-08T03:13:35.114Z,54.39
2018-05-08T03:16:03.444Z,54.71
2018-05-08T03:18:31.675Z,54.95
2018-05-08T03:21:00.670Z,54.54
2018-05-08T03:23:29.681Z,54.69
2018-05-08T03:25:57.913Z,54.50
2018-05-08T03:28:26.450Z,55.12
2018-05-08T03:30:54.680Z,55.11
2018-05-08T03:33:23.678Z,54.76
2018-05-08T03:35:51.962Z,55.42
2018-05-08T03:38:20.173Z,55.41
2018-05-08T03:40:48.498Z,55.37
2018-05-08T03:43:16.725Z,55.63
2018-05-08T03:45:44.959Z,55.78
2018-05-08T03:48:13.201Z,55.88
2018-05-08T03:50:41.446Z,55.98
2018-05-08T03:53:09.681Z,55.50
2018-05-08T03:55:37.921Z,55.99
2018-05-08T03:58:06.253Z,56.07
2018-05-08T04:00:53.074Z,55.91
2018-05-08T04:03:38.953Z,56.18
2018-05-08T04:06:11.435Z,56.00
2018-05-08T04:08:39.684Z,56.44
2018-05-08T04:11:07.930Z,56.38
2018-05-08T04:13:36.161Z,56.04
2018-05-08T04:16:04.419Z,56.15
2018-05-08T04:18:33.461Z,55.97
2018-05-08T04:21:01.704Z,56.51
2018-05-08T04:23:30.705Z,56.36
2018-05-08T04:25:58.949Z,56.05
2018-05-08T04:28:27.265Z,55.88
2018-05-08T04:30:55.507Z,56.48
2018-05-08T04:33:23.750Z,56.47
2018-05-08T04:35:51.989Z,56.45
2018-05-08T04:38:20.242Z,55.96
2018-05-08T04:40:49.246Z,56.39
2018-05-08T04:43:18.237Z,56.41
2018-05-08T04:45:47.252Z,56.20
2018-05-08T04:48:15.491Z,56.11
2018-05-08T04:50:43.726Z,56.16
2018-05-08T04:53:11.970Z,56.08
2018-05-08T04:55:40.201Z,56.62
2018-05-08T04:58:08.438Z,56.26
2018-05-08T05:00:36.682Z,55.87
2018-05-08T05:03:05.682Z,55.49
2018-05-08T05:05:33.926Z,55.50
2018-05-08T05:08:02.174Z,55.62
2018-05-08T05:10:30.422Z,54.64
2018-05-08T05:12:58.670Z,55.14
2018-05-08T05:15:27.658Z,54.75
2018-05-08T05:17:56.689Z,55.23
2018-05-08T05:20:24.918Z,55.45
2018-05-08T05:22:53.164Z,54.56
2018-05-08T05:25:21.493Z,54.88
2018-05-08T05:27:50.494Z,55.11
2018-05-08T05:30:18.746Z,54.79
2018-05-08T05:32:47.853Z,54.58
2018-05-08T05:35:16.861Z,54.65
2018-05-08T05:37:45.098Z,54.05
2018-05-08T05:40:13.342Z,54.53
2018-05-08T05:42:41.686Z,54.34
2018-05-08T05:45:09.831Z,53.06
2018-05-08T05:47:38.086Z,53.68
2018-05-08T05:50:06.323Z,53.99
2018-05-08T05:52:34.567Z,53.41
2018-05-08T05:55:03.603Z,53.34
2018-05-08T05:57:31.830Z,53.93
2018-05-08T06:00:00.846Z,53.42
2018-05-08T06:02:29.838Z,53.57
2018-05-08T06:04:58.111Z,53.41
2018-05-08T06:07:27.119Z,52.99
2018-05-08T06:09:55.349Z,53.23
2018-05-08T06:12:23.607Z,51.95
2018-05-08T06:14:51.858Z,52.35
2018-05-08T06:17:20.170Z,52.38
2018-05-08T06:19:49.102Z,52.54
2018-05-08T06:22:17.346Z,52.84
2018-05-08T06:24:45.602Z,52.57
2018-05-08T06:27:13.851Z,51.83
2018-05-08T06:29:42.088Z,52.43
2018-05-08T06:32:11.100Z,51.31
2018-05-08T06:34:39.334Z,51.72
2018-05-08T06:37:07.582Z,49.83
2018-05-08T06:39:35.893Z,50.95
2018-05-08T06:42:04.836Z,51.12
2018-05-08T06:44:33.078Z,50.66
2018-05-08T06:47:02.082Z,49.66
2018-05-08T06:49:31.093Z,49.15
2018-05-08T06:51:59.326Z,49.57
2018-05-08T06:54:27.569Z,49.27
2018-05-08T06:56:55.824Z,48.66
2018-05-08T06:59:24.055Z,49.31
2018-05-08T07:01:52.286Z,48.78
2018-05-08T07:04:20.542Z,49.06
2018-05-08T07:06:48.785Z,47.67
2018-05-08T07:09:17.069Z,48.25
2018-05-08T07:11:45.278Z,47.84
2018-05-08T07:14:13.542Z,47.34
2018-05-08T07:16:41.773Z,46.58
2018-05-08T07:19:10.016Z,46.74
2018-05-08T07:21:38.253Z,46.21
2018-05-08T07:24:07.271Z,46.35
2018-05-08T07:26:35.497Z,46.27
2018-05-08T07:29:03.733Z,46.37
2018-05-08T07:31:31.965Z,44.67
2018-05-08T07:34:00.962Z,45.23
2018-05-08T07:36:29.997Z,46.30
2018-05-08T07:38:58.245Z,45.72
2018-05-08T07:41:26.490Z,44.93
2018-05-08T07:43:54.781Z,43.34
2018-05-08T07:46:23.782Z,44.34
2018-05-08T07:48:52.974Z,44.92
2018-05-08T07:51:22.006Z,43.83
2018-05-08T07:53:50.243Z,43.50
2018-05-08T07:56:19.253Z,42.88
2018-05-08T07:58:47.501Z,43.17
2018-05-08T08:01:16.493Z,42.87
2018-05-08T08:03:45.509Z,42.49
2018-05-08T08:06:13.756Z,41.41
2018-05-08T08:08:41.985Z,42.48
2018-05-08T08:11:10.229Z,41.31
2018-05-08T08:13:38.465Z,40.83
2018-05-08T08:16:06.716Z,40.30
2018-05-08T08:18:34.981Z,39.75
2018-05-08T08:21:03.237Z,39.32
2018-05-08T08:23:32.233Z,39.25
2018-05-08T08:26:00.470Z,39.70
2018-05-08T08:28:28.719Z,39.65
2018-05-08T08:30:56.966Z,40.06
2018-05-08T08:33:25.201Z,38.89
2018-05-08T08:35:53.435Z,38.77
2018-05-08T08:38:21.865Z,38.34
2018-05-08T08:40:50.938Z,38.56
2018-05-08T08:43:19.866Z,38.55
2018-05-08T08:45:48.876Z,38.65
2018-05-08T08:48:17.112Z,37.89
2018-05-08T08:50:45.345Z,37.95
2018-05-08T08:53:13.578Z,37.25
2018-05-08T08:55:42.622Z,37.06
2018-05-08T08:58:10.857Z,36.29
2018-05-08T09:00:39.093Z,36.42
2018-05-08T09:03:07.342Z,37.32
2018-05-08T09:05:35.586Z,35.23
2018-05-08T09:08:04.585Z,34.98
2018-05-08T09:10:32.835Z,36.67
2018-05-08T09:13:01.844Z,35.88
2018-05-08T09:15:30.943Z,34.75
2018-05-08T09:17:59.928Z,33.06
2018-05-08T09:20:28.937Z,33.94
2018-05-08T09:22:57.507Z,33.42
2018-05-08T09:25:25.737Z,34.06
2018-05-08T09:27:53.965Z,33.83
2018-05-08T09:30:22.987Z,33.09
2018-05-08T09:32:51.265Z,33.61
2018-05-08T09:35:19.801Z,31.60
2018-05-08T09:37:48.805Z,31.51
2018-05-08T09:40:17.045Z,32.16
2018-05-08T09:42:45.302Z,31.22
2018-05-08T09:45:13.777Z,32.52
2018-05-08T09:47:42.006Z,32.10
2018-05-08T09:50:11.010Z,31.91
2018-05-08T09:52:39.275Z,30.75
2018-05-08T09:55:08.273Z,30.36
2018-05-08T09:57:36.501Z,30.21
2018-05-08T10:00:04.755Z,29.96
2018-05-08T10:02:33.000Z,30.25
2018-05-08T10:05:01.243Z,30.53
2018-05-08T10:07:29.478Z,29.06
2018-05-08T10:09:57.715Z,29.03
2018-05-08T10:12:26.726Z,29.76
2018-05-08T10:14:54.970Z,29.20
2018-05-08T10:17:23.214Z,29.46
2018-05-08T10:19:51.451Z,28.91
2018-05-08T10:22:19.695Z,28.90
2018-05-08T10:24:47.926Z,29.08
2018-05-08T10:27:16.187Z,28.69
2018-05-08T10:29:44.418Z,28.33
2018-05-08T10:32:12.718Z,28.57
2018-05-08T10:34:41.738Z,27.87
2018-05-08T10:37:09.966Z,27.84
2018-05-08T10:39:38.971Z,27.86
2018-05-08T10:42:07.986Z,28.35
2018-05-08T10:44:36.218Z,28.57
2018-05-08T10:47:04.556Z,27.21
2018-05-08T10:49:32.707Z,27.49
2018-05-08T10:52:00.958Z,27.68
2018-05-08T10:54:29.957Z,27.18
2018-05-08T10:56:58.997Z,27.52
2018-05-08T10:59:27.248Z,28.29
2018-05-08T11:01:55.478Z,29.16
2018-05-08T11:04:23.744Z,28.94
2018-05-08T11:06:51.965Z,27.93
2018-05-08T11:09:20.218Z,28.00
2018-05-08T11:11:49.217Z,27.73
2018-05-08T11:14:18.237Z,27.48
2018-05-08T11:16:46.470Z,26.91
2018-05-08T11:19:14.732Z,26.07
2018-05-08T11:21:42.950Z,27.61
2018-05-08T11:24:11.956Z,27.88
2018-05-08T11:26:40.279Z,27.89
2018-05-08T11:29:08.444Z,27.68
2018-05-08T11:31:36.770Z,27.34
2018-05-08T11:34:05.766Z,27.18
2018-05-08T11:36:34.011Z,27.10
2018-05-08T11:39:02.246Z,28.32
2018-05-08T11:41:30.494Z,26.45
2018-05-08T11:43:58.738Z,25.51
2018-05-08T11:46:26.969Z,26.05
2018-05-08T11:48:55.216Z,26.61
2018-05-08T11:51:23.445Z,27.59
2018-05-08T11:53:51.702Z,27.42
2018-05-08T11:56:19.937Z,27.32
2018-05-08T11:58:48.961Z,25.10
2018-05-08T12:01:17.209Z,27.04
2018-05-08T12:03:46.201Z,27.14
2018-05-08T12:06:15.209Z,27.72
2018-05-08T12:08:43.450Z,27.18
2018-05-08T12:11:11.689Z,27.09
2018-05-08T12:13:39.939Z,26.35
2018-05-08T12:16:08.198Z,26.70
2018-05-08T12:18:37.287Z,27.03
2018-05-08T12:21:06.405Z,27.47
2018-05-08T12:23:34.639Z,27.13
2018-05-08T12:26:02.867Z,27.25
2018-05-08T12:28:31.127Z,26.58
2018-05-08T12:30:59.357Z,25.92
2018-05-08T12:33:27.610Z,26.39
2018-05-08T12:35:55.874Z,26.24
2018-05-08T12:38:24.162Z,26.01
2018-05-08T12:40:52.381Z,27.19
2018-05-08T12:43:21.403Z,26.87
2018-05-08T12:45:49.639Z,26.80
2018-05-08T12:48:18.246Z,26.42
2018-05-08T12:50:47.374Z,26.23
2018-05-08T12:53:15.615Z,25.67
2018-05-08T12:55:44.682Z,25.39
2018-05-08T12:58:12.909Z,23.94
2018-05-08T13:00:41.162Z,24.37
2018-05-08T13:03:09.447Z,23.76
2018-05-08T13:05:37.809Z,24.13
2018-05-08T13:08:06.829Z,24.16
2018-05-08T13:10:35.064Z,23.91
2018-05-08T13:13:03.363Z,23.68
2018-05-08T13:15:32.359Z,23.48
2018-05-08T13:18:00.595Z,24.34
2018-05-08T13:20:28.946Z,26.09
2018-05-08T13:22:57.181Z,25.90
2018-05-08T13:25:25.430Z,25.44
2018-05-08T13:27:53.733Z,25.71
2018-05-08T13:30:22.734Z,26.45
2018-05-08T13:32:50.985Z,25.66
2018-05-08T13:35:19.986Z,26.53
2018-05-08T13:37:49.016Z,26.76
2018-05-08T13:40:17.371Z,26.26
2018-05-08T13:42:46.362Z,26.32
2018-05-08T13:45:14.593Z,25.80
2018-05-08T13:47:42.837Z,27.10
2018-05-08T13:50:11.073Z,26.50
2018-05-08T13:52:40.082Z,27.41
2018-05-08T13:55:09.127Z,26.65
2018-05-08T13:57:37.325Z,27.00
2018-05-08T14:00:05.574Z,27.48
2018-05-08T14:02:33.813Z,26.47
2018-05-08T14:05:02.059Z,26.46
2018-05-08T14:07:31.061Z,26.87
2018-05-08T14:10:00.062Z,25.98
2018-05-08T14:12:29.083Z,26.32
2018-05-08T14:14:57.662Z,27.26
2018-05-08T14:17:25.895Z,27.49
2018-05-08T14:19:54.123Z,27.33
2018-05-08T14:22:22.388Z,27.92
2018-05-08T14:24:50.702Z,26.45
2018-05-08T14:27:18.843Z,26.78
2018-05-08T14:29:47.091Z,27.04
2018-05-08T14:32:15.330Z,27.08
2018-05-08T14:34:43.651Z,26.66
2018-05-08T14:37:11.813Z,26.54
2018-05-08T14:39:40.856Z,27.48
2018-05-08T14:42:09.390Z,27.63
2018-05-08T14:44:38.398Z,27.89
2018-05-08T14:47:06.626Z,28.24
2018-05-08T14:49:34.984Z,27.75
2018-05-08T14:52:03.306Z,26.87
2018-05-08T14:54:32.306Z,26.88
2018-05-08T14:57:01.402Z,26.98
2018-05-08T14:59:30.409Z,27.10
2018-05-08T15:01:58.658Z,27.92
2018-05-08T15:04:27.782Z,27.58
2018-05-08T15:06:55.910Z,28.20
2018-05-08T15:09:25.661Z,28.05
2018-05-08T15:11:53.908Z,28.55
2018-05-08T15:14:22.917Z,28.86
2018-05-08T15:16:51.914Z,29.19
2018-05-08T15:19:20.170Z,28.92
2018-05-08T15:21:48.422Z,29.03
2018-05-08T15:24:16.630Z,29.22
2018-05-08T15:26:45.646Z,29.97
2018-05-08T15:29:13.982Z,29.98
2018-05-08T15:31:42.113Z,30.16
2018-05-08T15:34:10.362Z,31.12
2018-05-08T15:36:38.594Z,31.04
2018-05-08T15:39:06.919Z,31.56
2018-05-08T15:41:35.081Z,31.17
2018-05-08T15:44:04.078Z,30.61
2018-05-08T15:46:32.329Z,30.56
2018-05-08T15:49:00.579Z,30.76
2018-05-08T15:51:28.809Z,31.00
2018-05-08T15:53:57.043Z,30.59
2018-05-08T15:56:25.292Z,30.77
2018-05-08T15:58:53.553Z,31.59
2018-05-08T16:01:21.812Z,31.64
2018-05-08T16:03:50.042Z,32.33
2018-05-08T16:06:18.281Z,32.11
2018-05-08T16:08:46.517Z,32.43
2018-05-08T16:11:15.516Z,32.72
2018-05-08T16:13:44.526Z,32.70
2018-05-08T16:16:12.765Z,33.21
2018-05-08T16:18:41.010Z,33.92
2018-05-08T16:21:09.242Z,33.93
2018-05-08T16:23:37.525Z,33.38
2018-05-08T16:26:05.757Z,33.87
2018-05-08T16:28:33.991Z,33.78
2018-05-08T16:31:02.238Z,34.08
2018-05-08T16:33:31.399Z,33.27
2018-05-08T16:35:59.617Z,33.54
2018-05-08T16:38:27.851Z,34.17
2018-05-08T16:40:56.093Z,33.98
2018-05-08T16:43:24.337Z,34.43
2018-05-08T16:45:53.338Z,34.02
2018-05-08T16:48:21.594Z,34.24
2018-05-08T16:50:49.990Z,34.00
2018-05-08T16:53:18.991Z,33.81
2018-05-08T16:55:47.227Z,34.02
2018-05-08T16:58:15.468Z,34.35
2018-05-08T17:00:43.706Z,34.13
2018-05-08T17:03:11.962Z,33.93
2018-05-08T17:05:40.211Z,34.38
2018-05-08T17:08:08.441Z,34.95
2018-05-08T17:10:36.752Z,34.77
2018-05-08T17:13:04.922Z,34.73
2018-05-08T17:15:33.158Z,34.74
2018-05-08T17:18:02.175Z,35.06
2018-05-08T17:20:30.409Z,35.88
2018-05-08T17:22:59.413Z,35.50
2018-05-08T17:25:28.458Z,35.93
2018-05-08T17:27:56.662Z,36.77
2018-05-08T17:30:24.910Z,37.54
2018-05-08T17:32:53.141Z,37.98
2018-05-08T17:35:21.394Z,38.17
2018-05-08T17:37:49.638Z,38.18
2018-05-08T17:40:17.899Z,38.33
2018-05-08T17:42:46.138Z,38.33
2018-05-08T17:45:15.146Z,38.97
2018-05-08T17:47:43.393Z,38.63
2018-05-08T17:50:12.426Z,39.08
2018-05-08T17:52:40.651Z,38.83
2018-05-08T17:55:08.894Z,38.94
2018-05-08T17:57:37.127Z,39.17
2018-05-08T18:00:06.142Z,38.79
2018-05-08T18:02:34.378Z,38.96
2018-05-08T18:05:02.606Z,40.07
2018-05-08T18:07:30.853Z,40.88
2018-05-08T18:09:59.102Z,41.11
2018-05-08T18:12:27.350Z,41.62
2018-05-08T18:14:55.585Z,42.13
2018-05-08T18:17:23.860Z,42.15
2018-05-08T18:19:52.065Z,42.55
2018-05-08T18:22:20.310Z,42.11
2018-05-08T18:24:48.542Z,42.39
2018-05-08T18:27:16.789Z,42.54
2018-05-08T18:29:45.034Z,42.42
2018-05-08T18:32:13.274Z,43.00
2018-05-08T18:34:41.521Z,43.09
2018-05-08T18:37:09.754Z,43.26
2018-05-08T18:39:37.985Z,43.13
2018-05-08T18:42:06.235Z,43.32
2018-05-08T18:44:35.233Z,43.14
2018-05-08T18:47:03.490Z,43.75
2018-05-08T18:49:31.891Z,43.72
2018-05-08T18:52:00.115Z,43.71
2018-05-08T18:54:29.130Z,44.02
2018-05-08T18:56:57.591Z,44.48
2018-05-08T18:59:26.594Z,44.74
2018-05-08T19:01:54.853Z,44.75
2018-05-08T19:04:23.080Z,44.56
2018-05-08T19:06:51.341Z,44.81
2018-05-08T19:09:19.559Z,45.16
2018-05-08T19:11:47.791Z,45.49
2018-05-08T19:14:16.034Z,45.16
2018-05-08T19:16:45.041Z,45.21
2018-05-08T19:19:18.764Z,45.19
2018-05-08T19:21:46.994Z,45.45
2018-05-08T19:24:20.703Z,45.82
2018-05-08T19:26:48.926Z,45.77
2018-05-08T19:29:22.670Z,45.84
2018-05-08T19:31:51.669Z,46.57
2018-05-08T19:34:19.905Z,46.58
2018-05-08T19:36:53.486Z,46.87
2018-05-08T19:39:21.730Z,46.77
2018-05-08T19:41:50.718Z,47.04
2018-05-08T19:44:19.730Z,47.15
2018-05-08T19:46:47.994Z,47.23
2018-05-08T19:49:16.223Z,46.83
2018-05-08T19:51:44.553Z,46.52
2018-05-08T19:54:13.550Z,46.84
2018-05-08T19:56:41.793Z,47.29
2018-05-08T19:59:10.026Z,47.28
2018-05-08T20:01:38.378Z,47.83
2018-05-08T20:04:07.378Z,47.78
2018-05-08T20:06:35.618Z,48.33
2018-05-08T20:09:03.857Z,48.14
2018-05-08T20:11:32.137Z,48.18
2018-05-08T20:14:00.368Z,48.42
2018-05-08T20:16:29.377Z,48.18
2018-05-08T20:18:57.605Z,48.67
2018-05-08T20:21:27.364Z,48.72
2018-05-08T20:23:55.594Z,48.40
2018-05-08T20:26:23.850Z,48.65
2018-05-08T20:28:52.080Z,48.87
2018-05-08T20:31:20.314Z,48.79
2018-05-08T20:33:48.568Z,49.16
2018-05-08T20:36:16.807Z,49.39
2018-05-08T20:38:45.108Z,49.30
2018-05-08T20:41:13.338Z,49.42
2018-05-08T20:43:42.335Z,49.59
2018-05-08T20:46:11.354Z,49.38
2018-05-08T20:48:39.641Z,49.47
2018-05-08T20:51:07.862Z,49.73
2018-05-08T20:53:36.117Z,49.61
2018-05-08T20:56:04.348Z,49.81
2018-05-08T20:58:32.596Z,49.67
2018-05-08T21:01:00.875Z,49.87
2018-05-08T21:03:29.069Z,49.92
2018-05-08T21:05:58.068Z,50.03
2018-05-08T21:08:26.314Z,50.31
2018-05-08T21:10:54.553Z,50.28
2018-05-08T21:13:22.812Z,50.44
2018-05-08T21:15:51.050Z,50.29
2018-05-08T21:18:20.050Z,50.55
2018-05-08T21:20:49.070Z,50.47
2018-05-08T21:23:17.330Z,50.49
2018-05-08T21:25:46.325Z,50.66
2018-05-08T21:28:20.033Z,50.86
2018-05-08T21:30:53.919Z,51.01
2018-05-08T21:33:22.133Z,51.10
2018-05-08T21:35:50.398Z,50.77
2018-05-08T21:38:18.638Z,50.93
2018-05-08T21:40:47.649Z,50.65
2018-05-08T21:43:16.655Z,50.89
2018-05-08T21:45:44.886Z,51.42
2018-05-08T21:48:13.145Z,51.22
2018-05-08T21:50:41.403Z,51.22
2018-05-08T21:53:09.645Z,51.35
2018-05-08T21:55:37.876Z,51.99
2018-05-08T21:58:06.105Z,51.98
2018-05-08T22:00:34.650Z,52.03
2018-05-08T22:03:02.890Z,52.09
2018-05-08T22:05:31.134Z,52.17
2018-05-08T22:07:59.374Z,52.05
2018-05-08T22:10:27.613Z,51.60
2018-05-08T22:12:55.873Z,51.67
2018-05-08T22:15:24.167Z,51.49
2018-05-08T22:17:52.418Z,51.46
2018-05-08T22:20:20.665Z,51.80
2018-05-08T22:22:48.898Z,51.35
2018-05-08T22:25:17.213Z,51.77
2018-05-08T22:27:45.715Z,51.33
2018-05-08T22:30:13.977Z,50.96
2018-05-08T22:32:42.982Z,50.68
2018-05-08T22:35:11.994Z,50.66
2018-05-08T22:37:40.237Z,50.66
2018-05-08T22:40:09.263Z,50.68
2018-05-08T22:42:37.498Z,50.75
2018-05-08T22:45:05.745Z,50.18
2018-05-08T22:47:34.291Z,50.55
2018-05-08T22:50:02.536Z,50.24
2018-05-08T22:52:30.766Z,50.33
2018-05-08T22:54:59.001Z,50.40
2018-05-08T22:57:28.005Z,50.22
2018-05-08T22:59:56.253Z,51.09
2018-05-08T23:02:25.262Z,50.69
2018-05-08T23:07:28.761Z,51.02
2018-05-08T23:09:56.985Z,50.99
2018-05-08T23:12:25.213Z,50.96
2018-05-08T23:14:54.221Z,50.89
2018-05-08T23:17:23.230Z,51.05
2018-05-08T23:19:51.476Z,51.12
2018-05-08T23:22:20.481Z,50.95
2018-05-08T23:24:49.478Z,51.43
2018-05-08T23:27:17.738Z,51.03
2018-05-08T23:29:46.734Z,51.44
2018-05-08T23:32:15.737Z,51.58
2018-05-08T23:34:44.742Z,52.06
2018-05-08T23:37:12.990Z,52.11
2018-05-08T23:39:42.034Z,52.01
2018-05-08T23:42:10.282Z,51.90
2018-05-08T23:44:38.518Z,52.18
2018-05-08T23:47:07.066Z,51.57
2018-05-08T23:49:35.301Z,51.93
2018-05-08T23:52:04.308Z,52.26
2018-05-08T23:54:32.556Z,52.87
2018-05-08T23:57:00.789Z,52.67
2018-05-08T23:59:29.034Z,52.73
